Etusivu
METAR-TAF:

METAR-TAF

Lentoasemat :

Conakry, Guinea

Conakryn kansainvälinen lentoasema

Leveyspiiri: 09-34N, Pituuspiiri: 013-37W, korkeus merenpinnasta: 26 m

Tämänhetkinen sää

Tämä raportti tehtiin 1 tunti ja 51 minuuttia sitten, kello 20.00 UTC
tyyntä
Lämpötila 28°C
Kosteus 66%
Ilmanpaine 1011 hPa
Näkyvyys: 4000 m
usvaa

METAR: GUCY 122000Z 00000KT 4000 HZ NSC 28/21 Q1011 NOSIG

Aika: 21:51 (21:51 UTC)

Sääennuste

Tämä raportti tehtiin 4 tuntia ja 51 minuuttia sitten, kello 17.00 UTC
Ennuste voimassa 12. päivästä klo 18 UTC - 13. päivään klo 24 UTC
Tuuli 6 kn lännestä
Näkyvyys: 5000 m
usvaa
Tulossa
13. päivästä klo 03 UTC - 13. päivään klo 08 UTC
Tuuli 2 kn eri suunnista
Näkyvyys: 3000 m
utua

TAF: GUCY 121700Z 1218/1324 26006KT 5000 HZ NSC BECMG 1303/1308 VRB02KT 3000 BR NSC

Säähavainnot ja -ennusteet yli 4000 lentoasemalta (METAR- ja TAF-raportit).

Käytössä olevat sääasemat on merkitty karttaan keltaisilla ja punaisilla pisteillä.

Aseta hiiri pisteen päälle nähdäksesi sääaseman nimen.

Klikkaa sitten nähdäksesi säähavainnot ja -ennusteet.

Kartan vaihtaminen: klikkaa mustalla rastilla varustettuja vihreitä pisteitä, niin voit zoomata sisään; viivalla varustettua vihreää pistettä, niin voit zoomata ulos tai vihreitä nuolia, niin pääset viereisille kartoille.


METAR-TAF: